Wilhelm Schulte — MXDQ7 — position and weather

sailwx.info

Track history (hours):
 
Tides and Currents Weather Stations Pressure Air Temp Water Temp Dewpoint Dewpoint Depression Visibility Wind Speed Wind Dir Waves Ship Positions

Wilhelm Schulte

Last reported at 2017-Oct-23 02:31 UTC. Time now 2017-Oct-23 02:39 UTC.
Position N 52°12' E 003°43'.

Length 155 m; draft 8.9 m.

Type: Tanker. MMSI: 232095000.

Date/timePositionNaut miles runAvg speedWind from/ knotsBaromVisibWave heightAir tempDewpointWater temp
2017-Oct-23 02:31N 52°12' E 003°43'1 2.0
2017-Oct-23 02:01N 52°12' E 003°41'1 1.6
2017-Oct-23 01:31N 52°12' E 003°40'1 1.3
2017-Oct-23 00:59N 52°12' E 003°39'1 1.2
2017-Oct-23 00:30N 52°13' E 003°38'1 1.1
2017-Oct-22 23:40N 52°13' E 003°37'260 9.3
2017-Oct-21 19:45N 56°06' E 006°54'413.1
2017-Oct-21 19:29N 56°09' E 006°57'613.3
2017-Oct-21 19:00N 56°15' E 007°03'713.0
2017-Oct-21 18:29N 56°20' E 007°10'14513.3
2017-Oct-21 07:34N 57°51' E 010°39'315.2
2017-Oct-21 07:23N 57°51' E 010°44'615.1
2017-Oct-21 07:00N 57°51' E 010°55'815.1
2017-Oct-21 06:29N 57°52' E 011°10'715.1
2017-Oct-21 06:00N 57°52' E 011°23'611.7
2017-Oct-21 05:31N 57°54' E 011°33'510.2
2017-Oct-21 04:59N 57°57' E 011°42'611.2
2017-Oct-21 04:29N 58°02' E 011°47'4 7.3
2017-Oct-21 03:59N 58°06' E 011°48'1 0.0
2017-Oct-20 11:23N 58°05' E 011°49'1 1.6
2017-Oct-20 10:59N 58°05' E 011°48'4 8.5
2017-Oct-20 10:29N 58°01' E 011°47'611.7
2017-Oct-20 10:00N 57°56' E 011°41'5 9.9
2017-Oct-20 09:29N 57°54' E 011°32'510.3
2017-Oct-20 09:00N 57°50' E 011°26'510.3
2017-Oct-20 08:30N 57°45' E 011°25'713.4
2017-Oct-20 08:00N 57°38' E 011°25'714.7
2017-Oct-20 07:30N 57°31' E 011°25'714.2
2017-Oct-20 07:00N 57°24' E 011°28'714.0
2017-Oct-20 06:30N 57°18' E 011°33'714.1
2017-Oct-20 06:00N 57°11' E 011°37'713.9
2017-Oct-20 05:30N 57°05' E 011°42'713.9
2017-Oct-20 04:59N 56°58' E 011°46'713.9
2017-Oct-20 04:30N 56°52' E 011°50'8213.1
2017-Oct-19 22:17N 55°38' E 010°48'2015.7
2017-Oct-19 21:03N 55°20' E 011°02'115.9
2017-Oct-19 21:00N 55°19' E 011°02'815.4
2017-Oct-19 20:31N 55°12' E 011°05'816.3
2017-Oct-19 20:01N 55°04' E 011°01'816.0
2017-Oct-19 19:31N 54°57' E 010°54'816.9
2017-Oct-19 19:01N 54°49' E 010°50'714.4
2017-Oct-19 18:31N 54°42' E 010°46'4 8.8
2017-Oct-19 18:00N 54°39' E 010°52'713.1
2017-Oct-19 17:31N 54°36' E 011°02'815.4
2017-Oct-19 17:00N 54°35' E 011°15'815.9
2017-Oct-19 16:31N 54°31' E 011°28'1115.6
2017-Oct-19 15:49N 54°27' E 011°45'515.5
2017-Oct-19 15:30N 54°27' E 011°53'815.5
2017-Oct-19 15:00N 54°27' E 012°06'613.0
2017-Oct-19 14:30N 54°31' E 012°14'814.5
2017-Oct-19 13:59N 54°38' E 012°19'714.7
2017-Oct-19 13:30N 54°42' E 012°29'814.7
2017-Oct-19 12:59N 54°46' E 012°41'714.9
2017-Oct-19 12:30N 54°49' E 012°52'815.2
2017-Oct-19 12:00N 54°52' E 013°04'815.3
2017-Oct-19 11:30N 54°54' E 013°17'3414.1
2017-Oct-19 09:06N 55°08' E 014°10'214.8
2017-Oct-19 09:00N 55°10' E 014°12'714.7
2017-Oct-19 08:30N 55°16' E 014°20'2114.2
2017-Oct-19 07:01N 55°30' E 014°47'015.5
2017-Oct-19 07:00N 55°30' E 014°47'1114.6
2017-Oct-19 06:16N 55°35' E 015°04'414.9
2017-Oct-19 06:00N 55°37' E 015°10'714.9
2017-Oct-19 05:30N 55°39' E 015°23'714.9
2017-Oct-19 05:00N 55°41' E 015°36'715.0
2017-Oct-19 04:30N 55°43' E 015°48'815.1
2017-Oct-19 04:00N 55°45' E 016°02'715.0
2017-Oct-19 03:30N 55°47' E 016°14'715.0
2017-Oct-19 03:00N 55°49' E 016°27'815.0
2017-Oct-19 02:30N 55°51' E 016°40'714.9
2017-Oct-19 02:00N 55°53' E 016°53'1715.0
2017-Oct-19 00:51N 55°57' E 017°23'515.0
2017-Oct-19 00:30N 55°58' E 017°32'6114.4
2017-Oct-18 20:17N 56°34' E 018°59'414.7
2017-Oct-18 20:00N 56°38' E 019°04'27 0.9
2017-Oct-17 14:11N 56°52' E 019°45'3015.2
2017-Oct-17 12:13N 56°33' E 019°04'715.4
2017-Oct-17 11:45N 56°26' E 018°58'415.3
2017-Oct-17 11:30N 56°23' E 018°54'8815.0
2017-Oct-17 05:35N 55°45' E 016°31'115.3
2017-Oct-17 05:30N 55°45' E 016°29'815.3
2017-Oct-17 04:59N 55°43' E 016°15'715.4
2017-Oct-17 04:30N 55°41' E 016°02'815.2
2017-Oct-17 04:00N 55°39' E 015°49'715.0
2017-Oct-17 03:30N 55°38' E 015°36'815.2
2017-Oct-17 03:00N 55°36' E 015°23'815.4
2017-Oct-17 02:30N 55°33' E 015°11'815.4
2017-Oct-17 02:00N 55°29' E 014°59'815.4
2017-Oct-17 01:30N 55°26' E 014°46'815.1
2017-Oct-17 01:00N 55°21' E 014°36'815.1
2017-Oct-17 00:30N 55°15' E 014°28'815.0
2017-Oct-17 00:00N 55°10' E 014°19'715.0
2017-Oct-16 23:30N 55°04' E 014°11'814.3
2017-Oct-16 22:56N 54°59' E 013°59'715.2
2017-Oct-16 22:30N 54°57' E 013°48'815.0
2017-Oct-16 21:59N 54°55' E 013°35'3015.2
2017-Oct-16 20:02N 54°46' E 012°47'015.1
2017-Oct-16 20:00N 54°45' E 012°46'815.1
2017-Oct-16 19:29N 54°41' E 012°35'715.2
2017-Oct-16 19:00N 54°37' E 012°24'1014.6
2017-Oct-16 18:20N 54°29' E 012°15'1413.4
2017-Oct-16 17:17N 54°25' E 011°52'614.3
2017-Oct-16 16:52N 54°26' E 011°42'514.5
2017-Oct-16 16:30N 54°28' E 011°34'715.0
2017-Oct-16 16:00N 54°32' E 011°22'815.1
2017-Oct-16 15:30N 54°35' E 011°11'714.7
2017-Oct-16 15:00N 54°39' E 010°60'1211.6
2017-Oct-16 14:00N 54°49' E 010°51'815.0
2017-Oct-16 13:30N 54°56' E 010°56'714.5
2017-Oct-16 13:00N 55°03' E 011°02'815.1
2017-Oct-16 12:30N 55°10' E 011°03'813.5
2017-Oct-16 11:53N 55°19' E 011°02'4613.2
2017-Oct-16 08:26N 56°04' E 011°08'714.9
2017-Oct-16 07:56N 56°10' E 011°15'6014.1
2017-Oct-16 03:38N 57°10' E 011°36'215.9
2017-Oct-16 03:30N 57°12' E 011°34'815.8
2017-Oct-16 03:00N 57°19' E 011°30'815.9
2017-Oct-16 02:30N 57°27' E 011°25'815.6
2017-Oct-16 02:00N 57°33' E 011°15'815.7
2017-Oct-16 01:30N 57°38' E 011°04'815.8
2017-Oct-16 01:00N 57°43' E 010°53'713.9
2017-Oct-16 00:30N 57°47' E 010°42'810.3
2017-Oct-15 23:43N 57°48' E 010°27'2 9.6
2017-Oct-15 23:30N 57°48' E 010°23'1415.4
2017-Oct-15 22:36N 57°48' E 009°57'615.7
2017-Oct-15 22:13N 57°47' E 009°46'315.7
2017-Oct-15 22:00N 57°45' E 009°40'815.8
2017-Oct-15 21:30N 57°42' E 009°27'816.2
2017-Oct-15 21:00N 57°38' E 009°13'816.2
2017-Oct-15 20:29N 57°34' E 008°60'18015.6
2017-Oct-15 08:55N 55°09' E 005°48'815.6
2017-Oct-15 08:24N 55°02' E 005°40'615.5
2017-Oct-15 08:00N 54°57' E 005°34'815.4
2017-Oct-15 07:30N 54°50' E 005°27'2915.5
2017-Oct-15 05:39N 54°26' E 004°60'515.5
2017-Oct-15 05:19N 54°22' E 004°55'515.6
2017-Oct-15 04:59N 54°18' E 004°50'1915.4
2017-Oct-15 03:46N 54°00' E 004°38'815.2
2017-Oct-15 03:15N 53°53' E 004°33'3015.8
2017-Oct-15 01:20N 53°34' E 003°53'815.5
2017-Oct-15 00:51N 53°28' E 003°44'715.9
2017-Oct-15 00:22N 53°21' E 003°39'716.1
2017-Oct-14 23:58N 53°15' E 003°35'816.2
2017-Oct-14 23:30N 53°08' E 003°30'816.3
2017-Oct-14 23:00N 53°01' E 003°25'816.4
2017-Oct-14 22:30N 52°53' E 003°19'2116.4
2017-Oct-14 21:15N 52°35' E 003°04'516.1
2017-Oct-14 20:58N 52°31' E 002°60'715.8
2017-Oct-14 20:30N 52°24' E 002°59'713.8
2017-Oct-14 19:58N 52°18' E 003°06'715.0
2017-Oct-14 19:30N 52°15' E 003°16'714.9
2017-Oct-14 19:00N 52°11' E 003°26'714.9
2017-Oct-14 18:30N 52°07' E 003°36'714.9
2017-Oct-14 18:00N 52°03' E 003°47'5 9.6
2017-Oct-14 17:30N 52°02' E 003°54'612.7
2017-Oct-14 17:00N 51°59' E 004°04'510.0
2017-Oct-14 16:30N 51°56' E 004°11'1 0.6
2017-Oct-14 14:26N 51°55' E 004°12'0 0.0
2017-Oct-14 13:56N 51°55' E 004°12'0 0.0
2017-Oct-14 13:26N 51°55' E 004°12'0 0.0
2017-Oct-14 11:50N 51°55' E 004°12'0 0.0
2017-Oct-14 11:26N 51°55' E 004°12'0 0.0
2017-Oct-14 10:23N 51°55' E 004°12'0 0.0
2017-Oct-14 08:47N 51°55' E 004°12'0 0.0
2017-Oct-14 08:17N 51°55' E 004°12'0 0.0
2017-Oct-14 07:50N 51°55' E 004°12'0 0.0
2017-Oct-14 06:56N 51°55' E 004°12'0 0.0
2017-Oct-14 06:08N 51°55' E 004°12'0 0.0
2017-Oct-14 05:53N 51°55' E 004°12'0 0.0
2017-Oct-14 05:26N 51°55' E 004°12'0 0.0
2017-Oct-14 04:53N 51°55' E 004°12'0 0.0
2017-Oct-14 03:59N 51°55' E 004°12'0 0.0
2017-Oct-14 03:20N 51°55' E 004°12'0 0.0
2017-Oct-14 02:47N 51°55' E 004°12'0 0.0
2017-Oct-14 02:23N 51°55' E 004°12'0 0.0
2017-Oct-14 01:56N 51°55' E 004°12'0 0.0
2017-Oct-14 01:29N 51°55' E 004°12'0 0.0
2017-Oct-14 00:53N 51°55' E 004°12'0 0.0
2017-Oct-13 17:32N 51°55' E 004°12'0 0.0
2017-Oct-13 17:29N 51°55' E 004°12'0 0.0
2017-Oct-13 16:59N 51°55' E 004°12'0 0.0
2017-Oct-13 07:58N 51°55' E 004°12'0 0.0
2017-Oct-13 06:58N 51°55' E 004°12'0 0.0
2017-Oct-13 06:10N 51°55' E 004°12'0 0.0
2017-Oct-13 05:46N 51°55' E 004°12'0 0.0
2017-Oct-13 05:25N 51°55' E 004°12'0 0.0
2017-Oct-13 04:58N 51°55' E 004°12'0 0.0
2017-Oct-13 04:25N 51°55' E 004°12'0 0.0
2017-Oct-13 03:31N 51°55' E 004°12'0 0.0
2017-Oct-13 03:28N 51°55' E 004°12'0 0.0
2017-Oct-13 02:43N 51°55' E 004°12'  
Track history (hours):
 
Tides and Currents Weather Stations Pressure Air Temp Water Temp Dewpoint Dewpoint Depression Visibility Wind Speed Wind Dir Waves Ship Positions

Wilhelm Schulte

Last reported at 2017-Oct-23 02:31 UTC. Time now 2017-Oct-23 02:39 UTC.
Position N 52°12' E 003°43'.

Length 155 m; draft 8.9 m.

Type: Tanker. MMSI: 232095000.

Date/timePositionNaut miles runAvg speedWind from/ knotsBaromVisibWave heightAir tempDewpointWater temp
2017-Oct-23 02:31N 52°12' E 003°43'1 2.0
2017-Oct-23 02:01N 52°12' E 003°41'1 1.6
2017-Oct-23 01:31N 52°12' E 003°40'1 1.3
2017-Oct-23 00:59N 52°12' E 003°39'1 1.2
2017-Oct-23 00:30N 52°13' E 003°38'1 1.1
2017-Oct-22 23:40N 52°13' E 003°37'260 9.3
2017-Oct-21 19:45N 56°06' E 006°54'413.1
2017-Oct-21 19:29N 56°09' E 006°57'613.3
2017-Oct-21 19:00N 56°15' E 007°03'713.0
2017-Oct-21 18:29N 56°20' E 007°10'14513.3
2017-Oct-21 07:34N 57°51' E 010°39'315.2
2017-Oct-21 07:23N 57°51' E 010°44'615.1
2017-Oct-21 07:00N 57°51' E 010°55'815.1
2017-Oct-21 06:29N 57°52' E 011°10'715.1
2017-Oct-21 06:00N 57°52' E 011°23'611.7
2017-Oct-21 05:31N 57°54' E 011°33'510.2
2017-Oct-21 04:59N 57°57' E 011°42'611.2
2017-Oct-21 04:29N 58°02' E 011°47'4 7.3
2017-Oct-21 03:59N 58°06' E 011°48'1 0.0
2017-Oct-20 11:23N 58°05' E 011°49'1 1.6
2017-Oct-20 10:59N 58°05' E 011°48'4 8.5
2017-Oct-20 10:29N 58°01' E 011°47'611.7
2017-Oct-20 10:00N 57°56' E 011°41'5 9.9
2017-Oct-20 09:29N 57°54' E 011°32'510.3
2017-Oct-20 09:00N 57°50' E 011°26'510.3
2017-Oct-20 08:30N 57°45' E 011°25'713.4
2017-Oct-20 08:00N 57°38' E 011°25'714.7
2017-Oct-20 07:30N 57°31' E 011°25'714.2
2017-Oct-20 07:00N 57°24' E 011°28'714.0
2017-Oct-20 06:30N 57°18' E 011°33'714.1
2017-Oct-20 06:00N 57°11' E 011°37'713.9
2017-Oct-20 05:30N 57°05' E 011°42'713.9
2017-Oct-20 04:59N 56°58' E 011°46'713.9
2017-Oct-20 04:30N 56°52' E 011°50'8213.1
2017-Oct-19 22:17N 55°38' E 010°48'2015.7
2017-Oct-19 21:03N 55°20' E 011°02'115.9
2017-Oct-19 21:00N 55°19' E 011°02'815.4
2017-Oct-19 20:31N 55°12' E 011°05'816.3
2017-Oct-19 20:01N 55°04' E 011°01'816.0
2017-Oct-19 19:31N 54°57' E 010°54'816.9
2017-Oct-19 19:01N 54°49' E 010°50'714.4
2017-Oct-19 18:31N 54°42' E 010°46'4 8.8
2017-Oct-19 18:00N 54°39' E 010°52'713.1
2017-Oct-19 17:31N 54°36' E 011°02'815.4
2017-Oct-19 17:00N 54°35' E 011°15'815.9
2017-Oct-19 16:31N 54°31' E 011°28'1115.6
2017-Oct-19 15:49N 54°27' E 011°45'515.5
2017-Oct-19 15:30N 54°27' E 011°53'815.5
2017-Oct-19 15:00N 54°27' E 012°06'613.0
2017-Oct-19 14:30N 54°31' E 012°14'814.5
2017-Oct-19 13:59N 54°38' E 012°19'714.7
2017-Oct-19 13:30N 54°42' E 012°29'814.7
2017-Oct-19 12:59N 54°46' E 012°41'714.9
2017-Oct-19 12:30N 54°49' E 012°52'815.2
2017-Oct-19 12:00N 54°52' E 013°04'815.3
2017-Oct-19 11:30N 54°54' E 013°17'3414.1
2017-Oct-19 09:06N 55°08' E 014°10'214.8
2017-Oct-19 09:00N 55°10' E 014°12'714.7
2017-Oct-19 08:30N 55°16' E 014°20'2114.2
2017-Oct-19 07:01N 55°30' E 014°47'015.5
2017-Oct-19 07:00N 55°30' E 014°47'1114.6
2017-Oct-19 06:16N 55°35' E 015°04'414.9
2017-Oct-19 06:00N 55°37' E 015°10'714.9
2017-Oct-19 05:30N 55°39' E 015°23'714.9
2017-Oct-19 05:00N 55°41' E 015°36'715.0
2017-Oct-19 04:30N 55°43' E 015°48'815.1
2017-Oct-19 04:00N 55°45' E 016°02'715.0
2017-Oct-19 03:30N 55°47' E 016°14'715.0
2017-Oct-19 03:00N 55°49' E 016°27'815.0
2017-Oct-19 02:30N 55°51' E 016°40'714.9
2017-Oct-19 02:00N 55°53' E 016°53'1715.0
2017-Oct-19 00:51N 55°57' E 017°23'515.0
2017-Oct-19 00:30N 55°58' E 017°32'6114.4
2017-Oct-18 20:17N 56°34' E 018°59'414.7
2017-Oct-18 20:00N 56°38' E 019°04'27 0.9
2017-Oct-17 14:11N 56°52' E 019°45'3015.2
2017-Oct-17 12:13N 56°33' E 019°04'715.4
2017-Oct-17 11:45N 56°26' E 018°58'415.3
2017-Oct-17 11:30N 56°23' E 018°54'8815.0
2017-Oct-17 05:35N 55°45' E 016°31'115.3
2017-Oct-17 05:30N 55°45' E 016°29'815.3
2017-Oct-17 04:59N 55°43' E 016°15'715.4
2017-Oct-17 04:30N 55°41' E 016°02'815.2
2017-Oct-17 04:00N 55°39' E 015°49'715.0
2017-Oct-17 03:30N 55°38' E 015°36'815.2
2017-Oct-17 03:00N 55°36' E 015°23'815.4
2017-Oct-17 02:30N 55°33' E 015°11'815.4
2017-Oct-17 02:00N 55°29' E 014°59'815.4
2017-Oct-17 01:30N 55°26' E 014°46'815.1
2017-Oct-17 01:00N 55°21' E 014°36'815.1
2017-Oct-17 00:30N 55°15' E 014°28'815.0
2017-Oct-17 00:00N 55°10' E 014°19'715.0
2017-Oct-16 23:30N 55°04' E 014°11'814.3
2017-Oct-16 22:56N 54°59' E 013°59'715.2
2017-Oct-16 22:30N 54°57' E 013°48'815.0
2017-Oct-16 21:59N 54°55' E 013°35'3015.2
2017-Oct-16 20:02N 54°46' E 012°47'015.1
2017-Oct-16 20:00N 54°45' E 012°46'815.1
2017-Oct-16 19:29N 54°41' E 012°35'715.2
2017-Oct-16 19:00N 54°37' E 012°24'1014.6
2017-Oct-16 18:20N 54°29' E 012°15'1413.4
2017-Oct-16 17:17N 54°25' E 011°52'614.3
2017-Oct-16 16:52N 54°26' E 011°42'514.5
2017-Oct-16 16:30N 54°28' E 011°34'715.0
2017-Oct-16 16:00N 54°32' E 011°22'815.1
2017-Oct-16 15:30N 54°35' E 011°11'714.7
2017-Oct-16 15:00N 54°39' E 010°60'1211.6
2017-Oct-16 14:00N 54°49' E 010°51'815.0
2017-Oct-16 13:30N 54°56' E 010°56'714.5
2017-Oct-16 13:00N 55°03' E 011°02'815.1
2017-Oct-16 12:30N 55°10' E 011°03'813.5
2017-Oct-16 11:53N 55°19' E 011°02'4613.2
2017-Oct-16 08:26N 56°04' E 011°08'714.9
2017-Oct-16 07:56N 56°10' E 011°15'6014.1
2017-Oct-16 03:38N 57°10' E 011°36'215.9
2017-Oct-16 03:30N 57°12' E 011°34'815.8
2017-Oct-16 03:00N 57°19' E 011°30'815.9
2017-Oct-16 02:30N 57°27' E 011°25'815.6
2017-Oct-16 02:00N 57°33' E 011°15'815.7
2017-Oct-16 01:30N 57°38' E 011°04'815.8
2017-Oct-16 01:00N 57°43' E 010°53'713.9
2017-Oct-16 00:30N 57°47' E 010°42'810.3
2017-Oct-15 23:43N 57°48' E 010°27'2 9.6
2017-Oct-15 23:30N 57°48' E 010°23'1415.4
2017-Oct-15 22:36N 57°48' E 009°57'615.7
2017-Oct-15 22:13N 57°47' E 009°46'315.7
2017-Oct-15 22:00N 57°45' E 009°40'815.8
2017-Oct-15 21:30N 57°42' E 009°27'816.2
2017-Oct-15 21:00N 57°38' E 009°13'816.2
2017-Oct-15 20:29N 57°34' E 008°60'18015.6
2017-Oct-15 08:55N 55°09' E 005°48'815.6
2017-Oct-15 08:24N 55°02' E 005°40'615.5
2017-Oct-15 08:00N 54°57' E 005°34'815.4
2017-Oct-15 07:30N 54°50' E 005°27'2915.5
2017-Oct-15 05:39N 54°26' E 004°60'515.5
2017-Oct-15 05:19N 54°22' E 004°55'515.6
2017-Oct-15 04:59N 54°18' E 004°50'1915.4
2017-Oct-15 03:46N 54°00' E 004°38'815.2
2017-Oct-15 03:15N 53°53' E 004°33'3015.8
2017-Oct-15 01:20N 53°34' E 003°53'815.5
2017-Oct-15 00:51N 53°28' E 003°44'715.9
2017-Oct-15 00:22N 53°21' E 003°39'716.1
2017-Oct-14 23:58N 53°15' E 003°35'816.2
2017-Oct-14 23:30N 53°08' E 003°30'816.3
2017-Oct-14 23:00N 53°01' E 003°25'816.4
2017-Oct-14 22:30N 52°53' E 003°19'2116.4
2017-Oct-14 21:15N 52°35' E 003°04'516.1
2017-Oct-14 20:58N 52°31' E 002°60'715.8
2017-Oct-14 20:30N 52°24' E 002°59'713.8
2017-Oct-14 19:58N 52°18' E 003°06'715.0
2017-Oct-14 19:30N 52°15' E 003°16'714.9
2017-Oct-14 19:00N 52°11' E 003°26'714.9
2017-Oct-14 18:30N 52°07' E 003°36'714.9
2017-Oct-14 18:00N 52°03' E 003°47'5 9.6
2017-Oct-14 17:30N 52°02' E 003°54'612.7
2017-Oct-14 17:00N 51°59' E 004°04'510.0
2017-Oct-14 16:30N 51°56' E 004°11'1 0.6
2017-Oct-14 14:26N 51°55' E 004°12'0 0.0
2017-Oct-14 13:56N 51°55' E 004°12'0 0.0
2017-Oct-14 13:26N 51°55' E 004°12'0 0.0
2017-Oct-14 11:50N 51°55' E 004°12'0 0.0
2017-Oct-14 11:26N 51°55' E 004°12'0 0.0
2017-Oct-14 10:23N 51°55' E 004°12'0 0.0
2017-Oct-14 08:47N 51°55' E 004°12'0 0.0
2017-Oct-14 08:17N 51°55' E 004°12'0 0.0
2017-Oct-14 07:50N 51°55' E 004°12'0 0.0
2017-Oct-14 06:56N 51°55' E 004°12'0 0.0
2017-Oct-14 06:08N 51°55' E 004°12'0 0.0
2017-Oct-14 05:53N 51°55' E 004°12'0 0.0
2017-Oct-14 05:26N 51°55' E 004°12'0 0.0
2017-Oct-14 04:53N 51°55' E 004°12'0 0.0
2017-Oct-14 03:59N 51°55' E 004°12'0 0.0
2017-Oct-14 03:20N 51°55' E 004°12'0 0.0
2017-Oct-14 02:47N 51°55' E 004°12'0 0.0
2017-Oct-14 02:23N 51°55' E 004°12'0 0.0
2017-Oct-14 01:56N 51°55' E 004°12'0 0.0
2017-Oct-14 01:29N 51°55' E 004°12'0 0.0
2017-Oct-14 00:53N 51°55' E 004°12'0 0.0
2017-Oct-13 17:32N 51°55' E 004°12'0 0.0
2017-Oct-13 17:29N 51°55' E 004°12'0 0.0
2017-Oct-13 16:59N 51°55' E 004°12'0 0.0
2017-Oct-13 07:58N 51°55' E 004°12'0 0.0
2017-Oct-13 06:58N 51°55' E 004°12'0 0.0
2017-Oct-13 06:10N 51°55' E 004°12'0 0.0
2017-Oct-13 05:46N 51°55' E 004°12'0 0.0
2017-Oct-13 05:25N 51°55' E 004°12'0 0.0
2017-Oct-13 04:58N 51°55' E 004°12'0 0.0
2017-Oct-13 04:25N 51°55' E 004°12'0 0.0
2017-Oct-13 03:31N 51°55' E 004°12'0 0.0
2017-Oct-13 03:28N 51°55' E 004°12'0 0.0
2017-Oct-13 02:43N 51°55' E 004°12'  

Dump ship's entire track history